• Join FlightAware (Why Join?)
  • Login
  • US Flag 
06:05AM EDT


 

Airport Tracker/Info


-or-


 

Live Flight TrackerFlight Track Log ✈ N99PN ✈ 19-May-2014 ✈ KSRQ - KORL

Flight Track Log - Related Links

Times and Time Zones

All times are in EDT time to prevent confusion due to time zone crossing. See the N99PN flight status page for this flight to view local times or setup timezone preferences in your user account.

Time Position Orientation Groundspeed Altitude Reporting Facility
EDT Latitude Longitude Course Direction KTS MPH feet Rate Location/Type
04:07PM 27.3833 -82.5500 90° East 114 131 300  Level Tampa TRACON
04:08PM 27.3833 -82.5167 90° East 128 147 1,000 720 Climbing Tampa TRACON
04:09PM 27.3833 -82.4833 90° East 128 147 1,700 900 Climbing Tampa TRACON
04:10PM 27.4167 -82.4500 42° Northeast 121 139 2,800 900 Climbing Tampa TRACON
04:11PM 27.4333 -82.4333 42° Northeast 133 153 3,600 780 Climbing Tampa TRACON
04:12PM 27.4833 -82.4167 16° North 139 160 4,400 660 Climbing Tampa TRACON
04:13PM 27.5167 -82.3833 42° Northeast 152 175 5,000 300 Climbing Tampa TRACON
04:14PM 27.5500 -82.3667 24° Northeast 160 184 5,000 -60 Level Tampa TRACON
04:15PM 27.5833 -82.3500 24° Northeast 168 193 4,900  Descending Tampa TRACON
04:17PM 27.6667 -82.3000 28° Northeast 168 193 5,100  Climbing Tampa TRACON
04:19PM 27.7500 -82.2500 28° Northeast 164 189 5,000 -60 Descending Tampa TRACON
04:21PM 27.8167 -82.1833 41° Northeast 163 188 5,000  Level Tampa TRACON
04:22PM 27.8500 -82.1500 41° Northeast 165 190 5,000 60 Level Tampa TRACON
04:22PM 27.8711 -82.1200 51° Northeast 166 191 5,100  Climbing Miami Center
04:24PM 27.9356 -82.0486 44° Northeast 158 182 5,000 -60 Descending Miami Center
04:26PM 28.0000 -81.9833 42° Northeast 161 185 5,000  Level Orlando TRACON
04:27PM 28.0317 -81.9422 49° Northeast 161 185 5,100  Climbing Miami Center
04:28PM 28.0647 -81.9064 44° Northeast 161 185 5,100  Level Miami Center
04:29PM 28.1044 -81.8633 44° Northeast 162 186 5,100 -60 Level Miami Center
04:31PM 28.1500 -81.8000 51° Northeast 164 189 5,000 -60 Descending Orlando TRACON
04:32PM 28.1833 -81.7667 41° Northeast 161 185 5,000 -300 Level Orlando TRACON
04:33PM 28.2167 -81.7333 41° Northeast 156 180 4,500 -540 Descending Orlando TRACON
04:34PM 28.2500 -81.7000 41° Northeast 152 175 4,000 -540 Descending Orlando TRACON
04:35PM 28.2667 -81.6667 60° Northeast 153 176 3,500 -420 Descending Orlando TRACON
04:37PM 28.3203 -81.6031 46° Northeast 154 177 3,000 -420 Descending Miami Center
04:38PM 28.3494 -81.5661 48° Northeast 155 178 2,400 -600 Descending Miami Center
04:39PM 28.3819 -81.5253 48° Northeast 155 178 1,800 -420 Descending Miami Center
04:40PM 28.4106 -81.4894 48° Northeast 155 178 1,600 -120 Descending Miami Center
04:41PM 28.4408 -81.4586 42° Northeast 149 171 1,600  Level Miami Center
04:42PM 28.4783 -81.4331 31° Northeast 153 176 1,700 -60 Climbing Miami Center
04:43PM 28.5083 -81.4158 27° Northeast 134 154 1,500 -360 Descending Miami Center
04:44PM 28.5333 -81.3833 49° Northeast 95 109 1,000 -420 Descending Orlando TRACON
04:45PM 28.5333 -81.3500 90° East 103 119 600 -420 Descending Orlando TRACON
04:47PM 28.5455 -81.3329 66° East  Level Estimated
04:54PM 28.5455 -81.3329 66° East  Level Estimated
04:55PM 28.5455 -81.3329 130° Southeast  Level Estimated
04:56PM 28.5455 -81.3329 130° Southeast  Level Estimated